createdAt,value
2018-08-20T00:01:33.052Z,20.32
2018-08-20T00:04:04.819Z,20.26
2018-08-20T00:06:45.730Z,20.20
2018-08-20T00:09:14.492Z,20.11
2018-08-20T00:11:43.315Z,20.10
2018-08-20T00:14:12.210Z,20.05
2018-08-20T00:16:41.020Z,20.00
2018-08-20T00:19:13.497Z,19.95
2018-08-20T00:21:43.540Z,19.87
2018-08-20T00:24:12.371Z,19.77
2018-08-20T00:26:41.132Z,19.70
2018-08-20T00:29:09.899Z,19.63
2018-08-20T00:31:38.666Z,19.59
2018-08-20T00:34:07.439Z,19.55
2018-08-20T00:36:36.452Z,19.53
2018-08-20T00:39:07.516Z,19.47
2018-08-20T00:41:36.535Z,19.49
2018-08-20T00:44:09.675Z,19.44
2018-08-20T00:46:38.449Z,19.41
2018-08-20T00:49:07.217Z,19.40
2018-08-20T00:51:36.016Z,19.36
2018-08-20T00:54:04.837Z,19.38
2018-08-20T00:56:33.624Z,19.40
2018-08-20T00:59:03.232Z,19.42
2018-08-20T01:01:32.301Z,19.43
2018-08-20T01:04:01.916Z,19.47
2018-08-20T01:06:30.900Z,19.53
2018-08-20T01:08:59.680Z,19.54
2018-08-20T01:11:28.424Z,19.55
2018-08-20T01:13:57.165Z,19.57
2018-08-20T01:16:26.221Z,19.58
2018-08-20T01:18:54.996Z,19.60
2018-08-20T01:21:23.740Z,19.59
2018-08-20T01:23:52.480Z,19.56
2018-08-20T01:26:21.251Z,19.54
2018-08-20T01:28:50.012Z,19.54
2018-08-20T01:31:18.828Z,19.53
2018-08-20T01:33:47.593Z,19.53
2018-08-20T01:36:16.995Z,19.50
2018-08-20T01:38:45.732Z,19.46
2018-08-20T01:41:14.521Z,19.45
2018-08-20T01:43:43.308Z,19.41
2018-08-20T01:46:12.078Z,19.37
2018-08-20T01:48:40.824Z,19.32
2018-08-20T01:51:09.583Z,19.31
2018-08-20T01:53:38.364Z,19.32
2018-08-20T01:56:07.101Z,19.32
2018-08-20T01:58:35.884Z,19.29
2018-08-20T02:01:04.680Z,19.27
2018-08-20T02:03:33.492Z,19.23
2018-08-20T02:06:02.292Z,19.17
2018-08-20T02:08:31.097Z,19.13
2018-08-20T02:10:59.872Z,19.10
2018-08-20T02:13:28.628Z,19.01
2018-08-20T02:15:57.429Z,18.96
2018-08-20T02:18:26.205Z,18.96
2018-08-20T02:20:55.028Z,18.93
2018-08-20T02:23:23.922Z,18.89
2018-08-20T02:25:52.680Z,18.84
2018-08-20T02:28:21.680Z,18.80
2018-08-20T02:30:50.420Z,18.77
2018-08-20T02:33:19.282Z,18.69
2018-08-20T02:35:48.404Z,18.68
2018-08-20T02:38:17.222Z,18.66
2018-08-20T02:40:46.040Z,18.61
2018-08-20T02:43:14.772Z,18.56
2018-08-20T02:45:43.572Z,18.55
2018-08-20T02:48:12.346Z,18.48
2018-08-20T02:50:41.217Z,18.42
2018-08-20T02:53:09.976Z,18.39
2018-08-20T02:55:40.016Z,18.38
2018-08-20T02:58:08.836Z,18.33
2018-08-20T03:00:37.584Z,18.29
2018-08-20T03:03:06.426Z,18.26
2018-08-20T03:05:35.260Z,18.23
2018-08-20T03:08:04.130Z,18.16
2018-08-20T03:10:32.894Z,18.12
2018-08-20T03:13:01.660Z,18.10
2018-08-20T03:15:30.436Z,18.07
2018-08-20T03:17:59.215Z,18.04
2018-08-20T03:20:28.027Z,17.97
2018-08-20T03:22:56.815Z,17.90
2018-08-20T03:25:25.677Z,17.89
2018-08-20T03:27:54.464Z,17.86
2018-08-20T03:30:23.277Z,17.86
2018-08-20T03:32:52.016Z,17.76
2018-08-20T03:35:20.824Z,17.78
2018-08-20T03:37:49.584Z,17.75
2018-08-20T03:40:18.353Z,17.77
2018-08-20T03:42:47.121Z,17.71
2018-08-20T03:45:15.904Z,17.71
2018-08-20T03:47:44.876Z,17.71
2018-08-20T03:50:15.636Z,17.67
2018-08-20T03:52:44.434Z,17.64
2018-08-20T03:55:13.224Z,17.66
2018-08-20T03:57:41.960Z,17.66
2018-08-20T04:00:11.839Z,17.65
2018-08-20T04:02:40.660Z,17.62
2018-08-20T04:05:09.456Z,17.60
2018-08-20T04:07:38.179Z,17.57
2018-08-20T04:10:06.946Z,17.58
2018-08-20T04:12:35.696Z,17.54
2018-08-20T04:15:04.516Z,17.55
2018-08-20T04:17:33.251Z,17.50
2018-08-20T04:20:01.999Z,17.48
2018-08-20T04:22:30.743Z,17.44
2018-08-20T04:24:59.520Z,17.43
2018-08-20T04:27:28.259Z,17.42
2018-08-20T04:29:57.021Z,17.41
2018-08-20T04:32:25.794Z,17.36
2018-08-20T04:34:54.552Z,17.38
2018-08-20T04:37:23.553Z,17.35
2018-08-20T04:39:52.312Z,17.34
2018-08-20T04:42:21.113Z,17.35
2018-08-20T04:44:49.900Z,17.34
2018-08-20T04:47:20.053Z,17.37
2018-08-20T04:49:48.871Z,17.34
2018-08-20T04:52:18.284Z,17.39
2018-08-20T04:54:47.036Z,17.42
2018-08-20T04:57:15.877Z,17.45
2018-08-20T04:59:44.883Z,17.48
2018-08-20T05:02:13.710Z,17.51
2018-08-20T05:04:42.734Z,17.52
2018-08-20T05:07:11.600Z,17.53
2018-08-20T05:09:40.358Z,17.59
2018-08-20T05:12:11.007Z,17.62
2018-08-20T05:14:41.692Z,17.64
2018-08-20T05:17:11.646Z,17.73
2018-08-20T05:19:42.417Z,17.76
2018-08-20T05:22:11.376Z,17.81
2018-08-20T05:24:40.180Z,17.85
2018-08-20T05:27:09.572Z,17.92
2018-08-20T05:29:38.471Z,17.94
2018-08-20T05:32:07.308Z,17.93
2018-08-20T05:34:36.209Z,17.88
2018-08-20T05:37:05.291Z,17.88
2018-08-20T05:39:34.044Z,17.89
2018-08-20T05:42:02.880Z,17.92
2018-08-20T05:44:31.665Z,17.98
2018-08-20T05:47:00.446Z,18.04
2018-08-20T05:49:29.278Z,18.14
2018-08-20T05:51:58.132Z,18.17
2018-08-20T05:54:26.872Z,18.27
2018-08-20T05:56:55.648Z,18.32
2018-08-20T05:59:24.480Z,18.36
2018-08-20T06:01:53.260Z,18.40
2018-08-20T06:04:22.068Z,18.45
2018-08-20T06:06:50.844Z,18.50
2018-08-20T06:09:19.696Z,18.56
2018-08-20T06:11:48.529Z,18.67
2018-08-20T06:14:17.342Z,18.71
2018-08-20T06:16:46.228Z,18.78
2018-08-20T06:19:15.044Z,18.89
2018-08-20T06:21:43.812Z,18.95
2018-08-20T06:24:12.629Z,18.97
2018-08-20T06:26:41.414Z,19.02
2018-08-20T06:29:10.192Z,19.07
2018-08-20T06:31:38.958Z,19.11
2018-08-20T06:34:07.841Z,19.19
2018-08-20T06:36:36.668Z,19.31
2018-08-20T06:39:07.600Z,19.37
2018-08-20T06:41:36.416Z,19.46
2018-08-20T06:44:05.580Z,19.62
2018-08-20T06:46:34.392Z,19.73
2018-08-20T06:49:03.195Z,19.87
2018-08-20T06:51:31.944Z,20.11
2018-08-20T06:54:00.693Z,20.71
2018-08-20T06:56:29.453Z,21.80
2018-08-20T06:58:58.301Z,22.76
2018-08-20T07:01:27.092Z,23.37
2018-08-20T07:03:55.880Z,24.99
2018-08-20T07:06:24.711Z,24.32
2018-08-20T07:08:53.439Z,23.79
2018-08-20T07:11:22.205Z,24.79
2018-08-20T07:13:51.085Z,26.45
2018-08-20T07:16:19.908Z,27.31
2018-08-20T07:18:48.648Z,27.84
2018-08-20T07:21:17.457Z,28.49
2018-08-20T07:23:46.512Z,25.78
2018-08-20T07:26:15.339Z,25.80
2018-08-20T07:28:44.110Z,25.58
2018-08-20T07:31:12.918Z,26.31
2018-08-20T07:33:41.722Z,27.01
2018-08-20T07:36:10.560Z,25.37
2018-08-20T07:38:39.349Z,25.58
2018-08-20T07:41:08.292Z,25.83
2018-08-20T07:43:37.109Z,26.64
2018-08-20T07:46:05.936Z,27.29
2018-08-20T07:48:34.706Z,26.97
2018-08-20T07:51:04.332Z,26.03
2018-08-20T07:53:33.141Z,26.39
2018-08-20T07:56:01.954Z,27.82
2018-08-20T07:58:30.746Z,26.01
2018-08-20T08:00:59.537Z,25.38
2018-08-20T08:03:31.619Z,26.77
2018-08-20T08:06:02.770Z,26.01
2018-08-20T08:08:31.740Z,25.89
2018-08-20T08:11:00.600Z,25.70
2018-08-20T08:13:29.373Z,25.55
2018-08-20T08:15:58.148Z,25.38
2018-08-20T08:18:26.982Z,26.79
2018-08-20T08:20:55.971Z,26.08
2018-08-20T08:23:24.806Z,26.13
2018-08-20T08:25:53.600Z,25.25
2018-08-20T08:28:22.388Z,25.04
2018-08-20T08:30:51.141Z,26.03
2018-08-20T08:33:19.889Z,26.37
2018-08-20T08:35:48.704Z,26.42
2018-08-20T08:38:17.494Z,25.99
2018-08-20T08:40:46.313Z,25.48
2018-08-20T08:43:15.100Z,25.22
2018-08-20T08:45:43.869Z,25.16
2018-08-20T08:48:12.645Z,24.92
2018-08-20T08:50:41.388Z,24.77
2018-08-20T08:53:10.244Z,24.79
2018-08-20T08:55:39.013Z,25.29
2018-08-20T08:58:07.786Z,25.48
2018-08-20T09:00:36.680Z,25.62
2018-08-20T09:03:05.413Z,25.60
2018-08-20T09:05:34.228Z,25.47
2018-08-20T09:08:03.013Z,25.56
2018-08-20T09:10:31.774Z,25.63
2018-08-20T09:13:00.518Z,25.79
2018-08-20T09:15:29.306Z,25.91
2018-08-20T09:17:58.040Z,26.08
2018-08-20T09:20:26.828Z,25.91
2018-08-20T09:22:55.631Z,25.90
2018-08-20T09:25:24.404Z,26.02
2018-08-20T09:27:53.188Z,26.49
2018-08-20T09:30:23.503Z,26.93
2018-08-20T09:32:52.321Z,26.98
2018-08-20T09:35:21.136Z,26.93
2018-08-20T09:37:49.969Z,27.02
2018-08-20T09:40:18.720Z,27.17
2018-08-20T09:42:47.512Z,27.24
2018-08-20T09:45:16.321Z,27.52
2018-08-20T09:47:45.075Z,27.06
2018-08-20T09:50:15.645Z,27.29
2018-08-20T09:52:44.834Z,27.36
2018-08-20T09:55:13.711Z,27.43
2018-08-20T09:57:42.501Z,27.21
2018-08-20T10:00:17.210Z,27.30
2018-08-20T10:02:45.962Z,27.36
2018-08-20T10:05:14.713Z,27.59
2018-08-20T10:07:43.732Z,27.60
2018-08-20T10:10:13.114Z,27.86
2018-08-20T10:12:42.022Z,27.86
2018-08-20T10:15:10.904Z,27.87
2018-08-20T10:17:39.746Z,27.72
2018-08-20T10:20:10.647Z,27.42
2018-08-20T10:22:39.626Z,27.84
2018-08-20T10:25:08.644Z,27.77
2018-08-20T10:27:38.441Z,28.20
2018-08-20T10:30:08.768Z,27.93
2018-08-20T10:32:37.528Z,27.86
2018-08-20T10:35:06.622Z,27.89
2018-08-20T10:37:35.450Z,28.14
2018-08-20T10:40:04.277Z,28.56
2018-08-20T10:42:33.104Z,28.41
2018-08-20T10:45:07.172Z,27.77
2018-08-20T10:47:35.945Z,27.54
2018-08-20T10:50:04.773Z,27.45
2018-08-20T10:52:33.546Z,27.85
2018-08-20T10:55:02.288Z,28.28
2018-08-20T10:57:31.104Z,28.23
2018-08-20T10:59:59.917Z,27.95
2018-08-20T11:02:28.693Z,28.14
2018-08-20T11:04:57.447Z,28.50
2018-08-20T11:07:26.225Z,28.26
2018-08-20T11:09:55.090Z,28.19
2018-08-20T11:12:23.868Z,28.56
2018-08-20T11:14:52.629Z,28.68
2018-08-20T11:17:21.427Z,28.89
2018-08-20T11:19:50.153Z,28.68
2018-08-20T11:22:18.917Z,28.63
2018-08-20T11:24:47.678Z,28.63
2018-08-20T11:27:16.443Z,29.07
2018-08-20T11:29:45.186Z,28.39
2018-08-20T11:32:13.932Z,28.29
2018-08-20T11:34:42.713Z,28.81
2018-08-20T11:37:11.535Z,28.97
2018-08-20T11:39:40.567Z,29.10
2018-08-20T11:42:09.559Z,29.03
2018-08-20T11:44:38.322Z,29.24
2018-08-20T11:47:07.099Z,29.18
2018-08-20T11:49:35.869Z,29.08
2018-08-20T11:52:04.676Z,29.63
2018-08-20T11:54:33.453Z,29.99
2018-08-20T11:57:02.342Z,29.73
2018-08-20T11:59:31.137Z,29.58
2018-08-20T12:02:06.350Z,29.48
2018-08-20T12:04:35.130Z,29.90
2018-08-20T12:07:03.946Z,30.18
2018-08-20T12:09:32.713Z,30.38
2018-08-20T12:12:01.561Z,30.16
2018-08-20T12:14:30.420Z,30.19
2018-08-20T12:16:59.210Z,30.11
2018-08-20T12:19:27.960Z,30.18
2018-08-20T12:21:56.754Z,30.16
2018-08-20T12:24:25.526Z,29.88
2018-08-20T12:26:54.353Z,29.91
2018-08-20T12:29:23.182Z,30.22
2018-08-20T12:31:51.937Z,30.43
2018-08-20T12:34:20.746Z,30.07
2018-08-20T12:36:49.553Z,29.35
2018-08-20T12:39:18.316Z,29.48
2018-08-20T12:41:47.047Z,29.85
2018-08-20T12:44:15.832Z,29.47
2018-08-20T12:46:44.580Z,29.86
2018-08-20T12:49:13.333Z,29.94
2018-08-20T12:51:42.108Z,30.11
2018-08-20T12:54:10.973Z,29.96
2018-08-20T12:56:39.790Z,29.75
2018-08-20T12:59:08.612Z,29.48
2018-08-20T13:01:37.544Z,29.99
2018-08-20T13:04:06.330Z,30.10
2018-08-20T13:06:35.149Z,30.34
2018-08-20T13:09:05.078Z,29.96
2018-08-20T13:11:33.804Z,30.38
2018-08-20T13:14:02.589Z,30.07
2018-08-20T13:16:31.389Z,29.89
2018-08-20T13:19:00.200Z,29.75
2018-08-20T13:21:29.001Z,30.38
2018-08-20T13:23:57.747Z,30.23
2018-08-20T13:26:26.528Z,30.04
2018-08-20T13:28:55.277Z,30.11
2018-08-20T13:31:24.028Z,30.18
2018-08-20T13:33:53.075Z,30.52
2018-08-20T13:36:21.835Z,30.95
2018-08-20T13:38:50.747Z,31.21
2018-08-20T13:41:19.516Z,30.61
2018-08-20T13:43:48.285Z,30.26
2018-08-20T13:46:17.095Z,30.76
2018-08-20T13:48:45.885Z,30.48
2018-08-20T13:51:14.677Z,29.79
2018-08-20T13:53:43.444Z,29.50
2018-08-20T13:56:12.292Z,29.96
2018-08-20T13:58:41.036Z,30.24
2018-08-20T14:01:09.812Z,29.87
2018-08-20T14:03:38.576Z,30.40
2018-08-20T14:06:07.633Z,30.57
2018-08-20T14:08:36.389Z,30.87
2018-08-20T14:11:05.152Z,31.23
2018-08-20T14:13:33.948Z,30.61
2018-08-20T14:16:02.735Z,30.88
2018-08-20T14:18:31.469Z,30.90
2018-08-20T14:21:06.390Z,30.30
2018-08-20T14:23:35.485Z,29.75
2018-08-20T14:26:04.341Z,30.09
2018-08-20T14:28:33.124Z,29.95
2018-08-20T14:31:01.913Z,30.27
2018-08-20T14:33:30.739Z,30.91
2018-08-20T14:35:59.538Z,30.91
2018-08-20T14:38:28.321Z,31.02
2018-08-20T14:40:57.092Z,31.08
2018-08-20T14:43:25.902Z,31.22
2018-08-20T14:45:59.964Z,31.34
2018-08-20T14:48:28.806Z,31.41
2018-08-20T14:50:57.569Z,31.39
2018-08-20T14:53:26.529Z,31.24
2018-08-20T14:55:55.688Z,31.16
2018-08-20T14:58:24.581Z,31.25
2018-08-20T15:00:53.342Z,31.02
2018-08-20T15:03:22.169Z,30.76
2018-08-20T15:05:50.938Z,31.18
2018-08-20T15:08:19.711Z,31.68
2018-08-20T15:10:48.554Z,31.96
2018-08-20T15:13:17.308Z,31.79
2018-08-20T15:15:46.271Z,31.49
2018-08-20T15:18:14.888Z,30.65
2018-08-20T15:20:43.646Z,30.78
2018-08-20T15:23:12.509Z,31.15
2018-08-20T15:25:41.250Z,31.38
2018-08-20T15:28:10.036Z,30.82
2018-08-20T15:30:38.800Z,30.64
2018-08-20T15:33:07.670Z,31.03
2018-08-20T15:35:36.485Z,31.22
2018-08-20T15:38:05.261Z,31.29
2018-08-20T15:40:34.010Z,30.69
2018-08-20T15:43:02.748Z,31.21
2018-08-20T15:45:31.539Z,31.23
2018-08-20T15:48:00.321Z,31.24
2018-08-20T15:50:29.076Z,30.68
2018-08-20T15:52:57.886Z,30.15
2018-08-20T15:55:26.660Z,30.48
2018-08-20T15:57:55.400Z,30.05
2018-08-20T16:00:24.212Z,29.61
2018-08-20T16:02:52.940Z,29.54
2018-08-20T16:05:21.724Z,29.88
2018-08-20T16:07:50.575Z,29.48
2018-08-20T16:10:19.350Z,29.90
2018-08-20T16:12:48.109Z,30.24
2018-08-20T16:15:16.885Z,30.06
2018-08-20T16:17:45.642Z,30.04
2018-08-20T16:20:14.409Z,30.27
2018-08-20T16:22:43.518Z,30.20
2018-08-20T16:25:12.285Z,30.32
2018-08-20T16:27:41.040Z,30.20
2018-08-20T16:30:12.180Z,30.09
2018-08-20T16:32:43.809Z,29.69
2018-08-20T16:35:13.440Z,29.79
2018-08-20T16:37:43.376Z,29.52
2018-08-20T16:40:12.449Z,29.82
2018-08-20T16:42:41.206Z,29.48
2018-08-20T16:45:10.774Z,29.11
2018-08-20T16:47:39.945Z,29.26
2018-08-20T16:50:10.817Z,29.50
2018-08-20T16:52:39.851Z,29.12
2018-08-20T16:55:09.387Z,29.31
2018-08-20T16:57:38.516Z,29.35
2018-08-20T17:00:09.333Z,29.15
2018-08-20T17:02:40.557Z,28.84
2018-08-20T17:05:10.798Z,28.78
2018-08-20T17:07:39.955Z,28.53
2018-08-20T17:10:11.238Z,28.67
2018-08-20T17:12:40.587Z,28.89
2018-08-20T17:15:12.706Z,28.94
2018-08-20T17:17:41.691Z,28.60
2018-08-20T17:20:12.407Z,28.38
2018-08-20T17:22:42.552Z,28.27
2018-08-20T17:25:11.370Z,28.14
2018-08-20T17:27:40.440Z,28.39
2018-08-20T17:30:10.340Z,28.30
2018-08-20T17:32:45.338Z,28.14
2018-08-20T17:35:14.237Z,28.10
2018-08-20T17:37:43.434Z,27.91
2018-08-20T17:40:12.394Z,27.69
2018-08-20T17:42:41.416Z,27.55
2018-08-20T17:45:10.442Z,27.51
2018-08-20T17:47:40.265Z,27.33
2018-08-20T17:50:24.619Z,27.17
2018-08-20T17:52:53.531Z,27.07
2018-08-20T17:55:22.364Z,27.16
2018-08-20T17:57:51.143Z,27.09
2018-08-20T18:00:30.066Z,27.01
2018-08-20T18:02:59.048Z,26.85
2018-08-20T18:05:27.848Z,26.67
2018-08-20T18:07:57.008Z,26.50
2018-08-20T18:10:26.229Z,26.42
2018-08-20T18:12:55.219Z,26.26
2018-08-20T18:15:24.483Z,26.14
2018-08-20T18:17:53.288Z,26.14
2018-08-20T18:20:22.097Z,25.98
2018-08-20T18:22:51.163Z,25.96
2018-08-20T18:25:20.416Z,25.76
2018-08-20T18:27:49.627Z,25.70
2018-08-20T18:30:18.515Z,25.58
2018-08-20T18:32:47.727Z,25.47
2018-08-20T18:35:35.583Z,25.37
2018-08-20T18:38:04.574Z,25.41
2018-08-20T18:40:33.592Z,25.34
2018-08-20T18:43:02.712Z,25.18
2018-08-20T18:45:31.487Z,25.09
2018-08-20T18:48:00.645Z,25.01
2018-08-20T18:50:29.452Z,24.97
2018-08-20T18:52:58.269Z,24.87
2018-08-20T18:55:27.121Z,24.89
2018-08-20T18:57:55.937Z,25.17
2018-08-20T19:00:24.813Z,25.02
2018-08-20T19:02:56.028Z,24.84
2018-08-20T19:05:24.866Z,24.71
2018-08-20T19:07:53.688Z,24.60
2018-08-20T19:10:31.336Z,24.52
2018-08-20T19:13:00.314Z,24.40
2018-08-20T19:15:37.981Z,24.45
2018-08-20T19:18:08.474Z,24.60
2018-08-20T19:20:39.848Z,24.52
2018-08-20T19:23:08.852Z,24.39
2018-08-20T19:25:38.376Z,24.28
2018-08-20T19:28:13.529Z,24.27
2018-08-20T19:30:43.587Z,24.19
2018-08-20T19:33:18.059Z,24.02
2018-08-20T19:35:46.861Z,23.90
2018-08-20T19:38:16.005Z,23.79
2018-08-20T19:40:45.035Z,23.72
2018-08-20T19:43:13.968Z,23.68
2018-08-20T19:45:43.728Z,23.63
2018-08-20T19:48:13.490Z,23.56
2018-08-20T19:50:42.302Z,23.50
2018-08-20T19:53:28.568Z,23.42
2018-08-20T19:55:57.926Z,23.36
2018-08-20T19:58:35.153Z,23.26
2018-08-20T20:01:14.040Z,23.36
2018-08-20T20:03:45.296Z,23.40
2018-08-20T20:06:14.964Z,23.37
2018-08-20T20:08:43.776Z,23.40
2018-08-20T20:11:19.886Z,23.24
2018-08-20T20:13:52.691Z,23.17
2018-08-20T20:16:21.658Z,23.09
2018-08-20T20:18:51.545Z,23.02
2018-08-20T20:21:22.145Z,22.98
2018-08-20T20:23:51.833Z,22.96
2018-08-20T20:26:21.524Z,22.92
2018-08-20T20:28:50.419Z,23.13
2018-08-20T20:31:19.271Z,23.02
2018-08-20T20:33:48.145Z,22.85
2018-08-20T20:36:21.306Z,22.81
2018-08-20T20:38:53.233Z,22.77
2018-08-20T20:41:22.886Z,22.71
2018-08-20T20:43:51.901Z,22.62
2018-08-20T20:46:20.792Z,22.63
2018-08-20T20:48:49.624Z,22.43
2018-08-20T20:51:18.904Z,22.39
2018-08-20T20:53:48.069Z,22.31
2018-08-20T20:56:17.215Z,22.24
2018-08-20T20:58:46.057Z,22.20
2018-08-20T21:01:15.360Z,22.14
2018-08-20T21:03:44.253Z,22.07
2018-08-20T21:06:13.085Z,22.03
2018-08-20T21:08:48.244Z,21.97
2018-08-20T21:11:18.108Z,21.88
2018-08-20T21:13:47.101Z,21.83
2018-08-20T21:16:26.792Z,21.76
2018-08-20T21:18:58.925Z,21.69
2018-08-20T21:21:29.255Z,21.69
2018-08-20T21:23:58.194Z,21.74
2018-08-20T21:26:27.072Z,21.58
2018-08-20T21:28:56.399Z,21.52
2018-08-20T21:31:26.453Z,21.48
2018-08-20T21:33:57.852Z,21.36
2018-08-20T21:36:26.652Z,21.30
2018-08-20T21:38:55.437Z,21.26
2018-08-20T21:41:27.964Z,21.27
2018-08-20T21:43:57.470Z,21.26
2018-08-20T21:46:26.513Z,21.22
2018-08-20T21:48:55.541Z,21.29
2018-08-20T21:51:34.531Z,21.24
2018-08-20T21:54:03.400Z,21.16
2018-08-20T21:56:43.258Z,21.15
2018-08-20T21:59:12.198Z,21.23
2018-08-20T22:01:41.294Z,21.13
2018-08-20T22:04:15.652Z,21.03
2018-08-20T22:06:44.775Z,20.98
2018-08-20T22:09:13.796Z,21.03
2018-08-20T22:11:42.625Z,20.98
2018-08-20T22:14:12.467Z,20.98
2018-08-20T22:16:41.254Z,20.95
2018-08-20T22:19:10.144Z,20.87
2018-08-20T22:21:38.945Z,20.91
2018-08-20T22:24:09.123Z,20.78
2018-08-20T22:26:45.435Z,20.65
2018-08-20T22:29:14.559Z,20.59
2018-08-20T22:31:48.467Z,20.61
2018-08-20T22:34:17.279Z,20.63
2018-08-20T22:36:47.037Z,20.54
2018-08-20T22:39:15.784Z,20.54
2018-08-20T22:41:44.862Z,20.46
2018-08-20T22:44:13.616Z,20.44
2018-08-20T22:46:42.588Z,20.43
2018-08-20T22:49:11.328Z,20.39
2018-08-20T22:51:40.142Z,20.37
2018-08-20T22:54:08.956Z,20.35
2018-08-20T22:56:44.145Z,20.35
2018-08-20T22:59:13.251Z,20.28
2018-08-20T23:01:43.041Z,20.35
2018-08-20T23:04:11.800Z,20.38
2018-08-20T23:06:40.595Z,20.29
2018-08-20T23:09:26.408Z,20.29
2018-08-20T23:11:55.387Z,20.26
2018-08-20T23:14:24.324Z,20.14
2018-08-20T23:16:53.412Z,20.18
2018-08-20T23:19:22.229Z,20.29
2018-08-20T23:21:53.671Z,20.28
2018-08-20T23:24:22.425Z,20.22
2018-08-20T23:26:51.343Z,20.20
2018-08-20T23:29:20.170Z,20.17
2018-08-20T23:31:48.940Z,20.14
2018-08-20T23:34:17.705Z,20.16
2018-08-20T23:36:46.465Z,20.15
2018-08-20T23:39:17.622Z,20.10
2018-08-20T23:41:46.557Z,20.14
2018-08-20T23:44:16.277Z,20.15
2018-08-20T23:46:48.761Z,20.09
2018-08-20T23:49:17.648Z,19.95
2018-08-20T23:51:46.548Z,19.98
2018-08-20T23:54:15.354Z,20.00
2018-08-20T23:56:44.144Z,20.00
2018-08-20T23:59:13.217Z,20.01
